createdAt,value
2024-04-23T00:05:01.995Z,7.93
2024-04-23T00:10:08.563Z,7.40
2024-04-23T00:15:14.039Z,7.60
2024-04-23T00:20:22.059Z,8.43
2024-04-23T00:25:27.501Z,8.27
2024-04-23T00:30:32.959Z,7.73
2024-04-23T00:35:41.010Z,8.10
2024-04-23T00:40:46.661Z,8.57
2024-04-23T00:45:58.940Z,7.80
2024-04-23T00:51:07.501Z,8.30
2024-04-23T00:56:13.573Z,7.33
2024-04-23T01:01:19.164Z,7.43
2024-04-23T01:06:27.208Z,7.63
2024-04-23T01:11:32.715Z,7.43
2024-04-23T01:16:43.411Z,7.90
2024-04-23T01:21:57.973Z,8.33
2024-04-23T01:27:06.746Z,8.47
2024-04-23T01:32:12.937Z,7.70
2024-04-23T01:37:19.330Z,7.50
2024-04-23T01:42:27.792Z,8.40
2024-04-23T01:47:33.532Z,8.43
2024-04-23T01:52:39.072Z,8.23
2024-04-23T01:57:47.282Z,8.83
2024-04-23T02:02:54.137Z,8.27
2024-04-23T02:07:59.766Z,8.77
2024-04-23T02:13:09.238Z,9.33
2024-04-23T02:18:14.865Z,8.37
2024-04-23T02:23:20.388Z,9.17
2024-04-23T02:28:28.489Z,9.47
2024-04-23T02:33:34.058Z,9.27
2024-04-23T02:38:39.893Z,8.67
2024-04-23T02:43:47.997Z,8.93
2024-04-23T02:48:53.490Z,8.93
2024-04-23T02:53:58.923Z,8.77
2024-04-23T02:59:06.966Z,7.77
2024-04-23T03:04:12.842Z,9.13
2024-04-23T03:09:18.306Z,9.53
2024-04-23T03:14:26.396Z,8.93
2024-04-23T03:19:31.883Z,9.60
2024-04-23T03:24:38.892Z,9.13
2024-04-23T03:29:47.204Z,9.30
2024-04-23T03:34:52.752Z,9.33
2024-04-23T03:39:58.243Z,9.03
2024-04-23T03:45:06.505Z,8.80
2024-04-23T03:50:11.995Z,9.40
2024-04-23T03:55:17.620Z,9.20
2024-04-23T04:00:25.721Z,9.27
2024-04-23T04:05:47.422Z,9.23
2024-04-23T04:10:53.017Z,8.87
2024-04-23T04:16:01.108Z,9.93
2024-04-23T04:21:06.760Z,9.87
2024-04-23T04:26:13.449Z,10.87
2024-04-23T04:31:21.565Z,10.63
2024-04-23T04:36:27.052Z,11.00
2024-04-23T04:41:32.534Z,12.73
2024-04-23T04:46:40.923Z,14.97
2024-04-23T04:51:46.441Z,11.20
2024-04-23T04:56:51.914Z,11.87
2024-04-23T05:02:00.247Z,10.60
2024-04-23T05:07:05.733Z,11.00
2024-04-23T05:12:11.399Z,10.40
2024-04-23T05:17:20.482Z,11.03
2024-04-23T05:22:26.873Z,10.57
2024-04-23T05:27:32.339Z,10.97
2024-04-23T05:32:52.676Z,9.77
2024-04-23T05:37:58.262Z,11.13
2024-04-23T05:43:03.814Z,10.73
2024-04-23T05:49:05.243Z,10.30
2024-04-23T05:55:07.313Z,8.77
2024-04-23T06:00:15.856Z,9.80
2024-04-23T06:05:21.483Z,8.77
2024-04-23T06:10:27.066Z,8.63
2024-04-23T06:15:35.127Z,9.63
2024-04-23T06:20:40.629Z,9.17
2024-04-23T06:25:46.211Z,8.90
2024-04-23T06:30:54.445Z,9.23
2024-04-23T06:35:59.944Z,8.50
2024-04-23T06:41:05.469Z,8.57
2024-04-23T06:46:13.579Z,8.40
2024-04-23T06:51:19.062Z,8.63
2024-04-23T06:56:24.563Z,7.73
2024-04-23T07:01:32.991Z,7.70
2024-04-23T07:06:38.530Z,7.13
2024-04-23T07:11:44.046Z,6.30
2024-04-23T07:16:52.248Z,6.70
2024-04-23T07:21:57.822Z,5.90
2024-04-23T07:27:03.260Z,6.32
2024-04-23T07:32:14.650Z,6.15
2024-04-23T07:37:20.547Z,5.68
2024-04-23T07:42:26.072Z,5.80
2024-04-23T07:47:34.585Z,6.65
2024-04-23T07:52:40.794Z,5.75
2024-04-23T07:57:48.078Z,5.88
2024-04-23T08:03:00.472Z,6.10
2024-04-23T08:08:06.148Z,5.90
2024-04-23T08:13:11.637Z,6.15
2024-04-23T08:18:19.761Z,6.13
2024-04-23T08:23:25.259Z,6.07
2024-04-23T08:28:30.767Z,6.55
2024-04-23T08:33:38.958Z,6.22
2024-04-23T08:38:44.464Z,6.28
2024-04-23T08:43:55.923Z,5.95
2024-04-23T08:49:05.154Z,5.97
2024-04-23T08:54:10.942Z,6.57
2024-04-23T08:59:18.685Z,6.22
2024-04-23T09:04:27.529Z,6.25
2024-04-23T09:09:33.354Z,6.72
2024-04-23T09:14:38.836Z,6.32
2024-04-23T09:19:47.506Z,6.22
2024-04-23T09:24:53.036Z,6.43
2024-04-23T09:29:58.804Z,6.00
2024-04-23T09:35:08.375Z,6.00
2024-04-23T09:40:14.559Z,5.95
2024-04-23T09:45:20.222Z,6.22
2024-04-23T09:50:34.513Z,5.13
2024-04-23T09:55:40.065Z,6.00
2024-04-23T10:00:45.785Z,7.25
2024-04-23T10:05:54.965Z,5.78
2024-04-23T10:11:02.230Z,5.50
2024-04-23T10:16:14.896Z,5.40
2024-04-23T10:21:29.614Z,5.50
2024-04-23T10:26:35.988Z,5.70
2024-04-23T10:31:41.527Z,5.60
2024-04-23T10:36:52.413Z,5.22
2024-04-23T10:41:58.651Z,5.70
2024-04-23T10:47:04.322Z,6.57
2024-04-23T10:52:12.932Z,5.65
2024-04-23T10:57:18.854Z,6.03
2024-04-23T11:02:30.074Z,5.30
2024-04-23T11:07:38.266Z,5.60
2024-04-23T11:12:49.816Z,5.45
2024-04-23T11:17:56.772Z,5.40
2024-04-23T11:23:10.466Z,6.30
2024-04-23T11:28:16.580Z,5.03
2024-04-23T11:33:23.306Z,5.93
2024-04-23T11:38:43.458Z,5.68
2024-04-23T11:43:49.786Z,5.15
2024-04-23T11:48:58.071Z,5.07
2024-04-23T11:54:06.236Z,5.85
2024-04-23T11:59:11.739Z,5.97
2024-04-23T12:04:19.913Z,5.90
2024-04-23T12:09:28.478Z,5.78
2024-04-23T12:14:36.176Z,6.03
2024-04-23T12:19:43.505Z,5.53
2024-04-23T12:24:52.911Z,6.10
2024-04-23T12:30:10.650Z,6.00
2024-04-23T12:35:16.319Z,5.90
2024-04-23T12:40:24.692Z,6.35
2024-04-23T12:45:30.335Z,6.00
2024-04-23T12:50:35.949Z,6.20
2024-04-23T12:55:44.615Z,6.15
2024-04-23T13:00:50.195Z,5.50
2024-04-23T13:05:57.023Z,5.68
2024-04-23T13:11:05.285Z,5.85
2024-04-23T13:16:11.212Z,5.28
2024-04-23T13:21:16.736Z,5.50
2024-04-23T13:26:24.861Z,5.38
2024-04-23T13:31:30.360Z,5.38
2024-04-23T13:36:36.785Z,5.88
2024-04-23T13:41:44.857Z,6.05
2024-04-23T13:46:50.380Z,6.53
2024-04-23T13:51:55.836Z,5.30
2024-04-23T13:57:04.720Z,6.00
2024-04-23T14:02:13.298Z,6.32
2024-04-23T14:07:20.985Z,5.68
2024-04-23T14:12:29.966Z,6.18
2024-04-23T14:17:36.387Z,5.45
2024-04-23T14:22:41.823Z,5.57
2024-04-23T14:27:49.866Z,5.53
2024-04-23T14:32:55.332Z,6.25
2024-04-23T14:38:00.802Z,6.18
2024-04-23T14:43:08.826Z,5.57
2024-04-23T14:48:14.446Z,4.90
2024-04-23T14:53:22.127Z,4.65
2024-04-23T14:58:31.176Z,6.03
2024-04-23T15:03:36.666Z,5.28
2024-04-23T15:08:44.165Z,5.03
2024-04-23T15:13:52.267Z,5.00
2024-04-23T15:18:57.964Z,9.45
2024-04-23T15:24:03.517Z,5.25
2024-04-23T15:29:11.694Z,5.35
2024-04-23T15:34:17.192Z,4.93
2024-04-23T15:39:22.865Z,5.20
2024-04-23T15:44:31.045Z,5.03
2024-04-23T15:49:36.783Z,5.68
2024-04-23T15:54:42.601Z,5.22
2024-04-23T15:59:50.734Z,4.57
2024-04-23T16:04:56.365Z,4.40
2024-04-23T16:10:01.950Z,4.90
2024-04-23T16:15:11.194Z,5.07
2024-04-23T16:20:16.857Z,5.03
2024-04-23T16:25:22.396Z,4.22
2024-04-23T16:30:30.446Z,5.15
2024-04-23T16:35:38.415Z,5.40
2024-04-23T16:40:44.027Z,5.57
2024-04-23T16:45:52.665Z,6.65
2024-04-23T16:50:58.435Z,5.50
2024-04-23T16:56:05.151Z,5.35
2024-04-23T17:01:13.766Z,5.88
2024-04-23T17:06:19.563Z,4.50
2024-04-23T17:11:25.546Z,5.05
2024-04-23T17:16:33.750Z,4.78
2024-04-23T17:21:39.363Z,5.30
2024-04-23T17:26:44.856Z,6.75
2024-04-23T17:31:53.157Z,11.38
2024-04-23T17:36:58.696Z,5.28
2024-04-23T17:42:04.664Z,5.90
2024-04-23T17:47:13.820Z,12.90
2024-04-23T17:52:19.624Z,8.53
2024-04-23T17:57:25.166Z,10.52
2024-04-23T18:02:33.370Z,6.88
2024-04-23T18:07:39.061Z,10.27
2024-04-23T18:12:44.585Z,6.28
2024-04-23T18:17:56.697Z,7.50
2024-04-23T18:23:02.412Z,6.60
2024-04-23T18:28:08.878Z,7.70
2024-04-23T18:33:17.009Z,7.77
2024-04-23T18:38:23.651Z,11.27
2024-04-23T18:43:29.194Z,12.57
2024-04-23T18:48:37.409Z,13.70
2024-04-23T18:53:43.448Z,9.70
2024-04-23T18:58:49.066Z,8.47
2024-04-23T19:03:57.427Z,8.73
2024-04-23T19:09:02.994Z,9.60
2024-04-23T19:14:14.938Z,9.70
2024-04-23T19:19:25.295Z,9.13
2024-04-23T19:24:30.937Z,8.27
2024-04-23T19:29:39.210Z,7.77
2024-04-23T19:34:48.207Z,24.00
2024-04-23T19:39:53.682Z,12.83
2024-04-23T19:44:59.192Z,10.77
2024-04-23T19:50:08.032Z,10.67
2024-04-23T19:55:14.613Z,9.70
2024-04-23T20:00:25.400Z,7.60
2024-04-23T20:05:33.571Z,11.10
2024-04-23T20:10:39.082Z,7.60
2024-04-23T20:15:44.563Z,8.33
2024-04-23T20:20:52.581Z,8.30
2024-04-23T20:25:58.076Z,8.10
2024-04-23T20:31:04.398Z,7.73
2024-04-23T20:36:15.261Z,7.20
2024-04-23T20:41:21.041Z,7.50
2024-04-23T20:46:26.542Z,9.53
2024-04-23T20:51:34.742Z,39.77
2024-04-23T20:56:40.406Z,23.30
2024-04-23T21:01:45.849Z,13.17
2024-04-23T21:06:53.887Z,10.07
2024-04-23T21:11:59.453Z,9.87
2024-04-23T21:17:05.120Z,9.23
2024-04-23T21:22:13.175Z,8.57
2024-04-23T21:27:18.603Z,9.17
2024-04-23T21:32:24.749Z,9.30
2024-04-23T21:37:32.848Z,8.27
2024-04-23T21:42:41.657Z,9.90
2024-04-23T21:47:47.875Z,8.83
2024-04-23T21:53:01.639Z,17.60
2024-04-23T21:58:07.532Z,22.67
2024-04-23T22:03:13.000Z,12.43
2024-04-23T22:08:21.302Z,9.83
2024-04-23T22:13:27.072Z,13.93
2024-04-23T22:18:32.645Z,13.47
2024-04-23T22:23:40.773Z,9.90
2024-04-23T22:28:46.204Z,9.80
2024-04-23T22:33:51.871Z,10.60
2024-04-23T22:39:00.015Z,8.50
2024-04-23T22:44:05.483Z,7.87
2024-04-23T22:49:10.901Z,8.00
2024-04-23T22:54:19.661Z,7.97
2024-04-23T22:59:25.235Z,7.97
2024-04-23T23:04:30.764Z,7.90
2024-04-23T23:09:38.920Z,8.60
2024-04-23T23:14:44.386Z,8.23
2024-04-23T23:19:49.894Z,8.20
2024-04-23T23:24:58.400Z,8.53
2024-04-23T23:30:03.908Z,7.90
2024-04-23T23:35:09.498Z,8.70
2024-04-23T23:40:17.727Z,8.70
2024-04-23T23:45:25.493Z,9.17
2024-04-23T23:50:32.341Z,8.50
2024-04-23T23:55:40.475Z,9.07
